Time;durP1;ratioP1;P1;durP2;ratioP2;P2;SDS_P1;SDS_P2;PMS_P1;PMS_P2;Temp;Humidity;BMP_temperature;BMP_pressure;BME280_temperature;BME280_humidity;BME280_pressure;Samples;Min_cycle;Max_cycle;Signal;HPM_P1;HPM_P2
2023/01/23 00:01:19;;;;;;;14.00;10.75;;;;;;;1.57;90.93;102220.66;5122649;27;20057;-70
2023/01/23 00:04:23;;;;;;;13.05;10.05;;;;;;;1.55;90.81;102236.09;5135574;27;20115;-68
2023/01/23 00:07:26;;;;;;;11.85;9.93;;;;;;;1.56;90.89;102237.88;5135226;27;20461;-68
2023/01/23 00:10:29;;;;;;;9.35;8.15;;;;;;;1.56;91.14;102236.97;5135111;27;20119;-69
2023/01/23 00:13:34;;;;;;;9.73;8.35;;;;;;;1.56;91.02;102219.81;5135047;27;20042;-68
2023/01/23 00:16:37;;;;;;;10.82;9.55;;;;;;;1.56;91.13;102224.97;5134957;27;20046;-68
2023/01/23 00:19:40;;;;;;;9.48;8.45;;;;;;;1.53;91.61;102230.09;5134945;27;20046;-68
2023/01/23 00:22:44;;;;;;;12.55;10.23;;;;;;;1.52;91.34;102230.06;5134890;27;20096;-68
2023/01/23 00:25:47;;;;;;;10.82;8.93;;;;;;;1.52;91.36;102219.75;5134833;27;20084;-69
2023/01/23 00:28:52;;;;;;;9.23;7.65;;;;;;;1.53;91.24;102221.47;5134793;27;20531;-69
2023/01/23 00:31:56;;;;;;;12.52;8.75;;;;;;;1.51;91.41;102218.03;5122287;27;20054;-69
2023/01/23 00:34:59;;;;;;;11.00;9.90;;;;;;;1.54;91.55;102224.06;5134747;27;20049;-69
2023/01/23 00:38:02;;;;;;;14.75;12.25;;;;;;;1.52;91.33;102236.06;5110142;27;20479;-69
2023/01/23 00:41:06;;;;;;;;;;;;;;;1.53;91.49;102231.78;5110804;27;20054;-69
2023/01/23 00:44:09;;;;;;;11.68;9.13;;;;;;;1.53;91.63;102227.50;5122100;27;20329;-69
2023/01/23 00:47:12;;;;;;;11.70;9.38;;;;;;;1.52;91.66;102220.59;5134721;27;20560;-69
2023/01/23 00:50:15;;;;;;;11.20;8.77;;;;;;;1.53;91.33;102222.34;5134414;27;20042;-69
2023/01/23 00:53:19;;;;;;;10.07;8.98;;;;;;;1.50;91.71;102237.78;5134337;27;20445;-68
2023/01/23 00:56:23;;;;;;;11.02;9.55;;;;;;;1.50;91.76;102231.72;5121516;27;20054;-68
2023/01/23 00:59:26;;;;;;;11.15;8.98;;;;;;;1.57;91.71;102243.88;5121551;27;20046;-68
2023/01/23 01:02:30;;;;;;;9.43;8.27;;;;;;;1.57;91.75;102247.31;5134213;27;20507;-69
2023/01/23 01:05:33;;;;;;;;;;;;;;;1.50;91.91;102249.78;5134746;27;20092;-69
2023/01/23 01:08:37;;;;;;;8.65;7.25;;;;;;;1.55;91.54;102241.25;5134116;27;19918;-69
2023/01/23 01:11:40;;;;;;;9.70;8.27;;;;;;;1.55;91.59;102251.56;5134037;27;20042;-69
2023/01/23 01:14:43;;;;;;;8.90;7.30;;;;;;;1.56;91.34;102255.00;5121242;27;20106;-69
2023/01/23 01:17:47;;;;;;;8.95;7.60;;;;;;;1.57;91.55;102255.06;5121355;27;20042;-68
2023/01/23 01:20:50;;;;;;;10.23;8.32;;;;;;;1.56;91.46;102249.84;5121202;27;20114;-69
2023/01/23 01:23:53;;;;;;;16.38;10.27;;;;;;;1.59;91.55;102253.34;5133956;27;20038;-69
2023/01/23 01:26:56;;;;;;;9.65;8.00;;;;;;;1.61;91.52;102256.81;5133876;27;20471;-69
2023/01/23 01:30:00;;;;;;;8.80;7.43;;;;;;;1.62;91.28;102261.13;5133501;27;20082;-68
2023/01/23 01:33:03;;;;;;;9.00;7.88;;;;;;;1.69;90.99;102261.19;5121107;28;20042;-68
2023/01/23 01:36:11;;;;;;;9.13;7.55;;;;;;;1.64;91.04;102250.84;5109371;28;20571;-68
2023/01/23 01:39:15;;;;;;;8.70;7.80;;;;;;;1.57;90.84;102249.91;5120772;28;20413;-69
2023/01/23 01:42:18;;;;;;;9.52;7.63;;;;;;;1.55;91.41;102261.88;5133565;28;20100;-68
2023/01/23 01:45:59;;;;;;;8.70;7.15;;;;;;;1.57;91.49;102255.06;5133602;28;20084;-68
2023/01/23 01:49:10;;;;;;;9.45;7.95;;;;;;;1.60;91.20;102280.88;5121112;28;20041;-69
2023/01/23 01:52:19;;;;;;;8.77;7.80;;;;;;;1.60;91.21;102274.84;5133792;28;20487;-68
2023/01/23 01:55:22;;;;;;;7.35;6.30;;;;;;;1.56;91.52;102279.13;5133594;28;20114;-68
2023/01/23 01:58:27;;;;;;;8.50;7.53;;;;;;;1.58;91.24;102279.97;5133568;28;20045;-69
2023/01/23 02:01:31;;;;;;;8.60;7.32;;;;;;;1.59;91.25;102281.69;5133710;28;20507;-68
2023/01/23 02:04:39;;;;;;;8.68;7.20;;;;;;;1.57;91.22;102267.09;5133549;28;20424;-69
2023/01/23 02:12:02;;;;;;;8.13;7.05;;;;;;;1.53;91.37;102276.50;5108766;28;20046;-69
2023/01/23 02:15:06;;;;;;;8.90;7.80;;;;;;;1.53;91.36;102275.59;5120609;28;20515;-69
2023/01/23 02:18:09;;;;;;;9.32;6.88;;;;;;;1.52;91.70;102287.63;5108755;28;20091;-69
2023/01/23 02:21:16;;;;;;;9.27;7.97;;;;;;;1.54;91.40;102285.09;5133407;28;20069;-68
2023/01/23 02:24:30;;;;;;;8.80;6.85;;;;;;;1.59;91.22;102283.41;5120612;28;20088;-68
2023/01/23 02:27:34;;;;;;;8.77;7.15;;;;;;;1.60;91.06;102283.44;5120530;28;20046;-69
2023/01/23 02:30:38;;;;;;;;;;;;;;;1.62;91.14;102289.47;5109328;28;20162;-69
2023/01/23 02:33:47;;;;;;;8.45;7.35;;;;;;;1.58;90.77;102276.53;5120760;28;19934;-69
2023/01/23 02:36:51;;;;;;;8.75;7.55;;;;;;;1.56;91.14;102289.44;5120350;28;20062;-69
2023/01/23 02:39:55;;;;;;;9.68;7.93;;;;;;;1.52;90.79;102287.63;5120379;27;20057;-69
2023/01/23 02:42:59;;;;;;;8.20;6.55;;;;;;;1.57;91.43;102298.03;5124152;27;20532;-69
2023/01/23 02:46:08;;;;;;;7.70;6.63;;;;;;;1.59;91.18;102298.88;5124246;27;20070;-69
2023/01/23 02:49:11;;;;;;;9.23;7.32;;;;;;;1.55;91.19;102295.41;5100438;27;20045;-68
2023/01/23 02:52:15;;;;;;;8.73;6.97;;;;;;;1.54;91.29;102301.41;5124260;27;20038;-69
2023/01/23 02:55:18;;;;;;;7.47;6.65;;;;;;;1.54;91.04;102309.16;5124135;27;20054;-68
2023/01/23 03:01:42;;;;;;;7.72;6.85;;;;;;;1.54;91.58;102309.16;5123944;27;20103;-68
2023/01/23 03:04:46;;;;;;;8.57;7.47;;;;;;;1.59;91.33;102315.22;5124117;27;20147;-69
2023/01/23 03:07:49;;;;;;;9.85;7.45;;;;;;;1.54;91.65;102319.47;5136459;27;20046;-69
2023/01/23 03:10:52;;;;;;;10.13;7.30;;;;;;;1.54;91.76;102316.88;5136645;27;20061;-69
2023/01/23 03:13:56;;;;;;;8.77;7.68;;;;;;;1.59;91.38;102310.06;5123865;27;20108;-68
2023/01/23 03:16:59;;;;;;;10.02;6.82;;;;;;;1.63;91.46;102306.69;5123614;27;20042;-68
2023/01/23 03:20:07;;;;;;;7.57;6.60;;;;;;;1.58;91.14;102315.22;5123372;27;20150;-68
2023/01/23 03:23:11;;;;;;;8.52;6.85;;;;;;;1.61;91.26;102308.38;5123359;27;20087;-68
2023/01/23 03:26:15;;;;;;;7.45;6.65;;;;;;;1.58;90.92;102313.50;5123465;27;20404;-68
2023/01/23 03:32:46;;;;;;;9.70;7.25;;;;;;;1.49;91.02;102318.53;5136246;27;20080;-68
2023/01/23 03:35:50;;;;;;;8.25;6.53;;;;;;;1.50;91.04;102315.13;5123087;27;20050;-68
2023/01/23 03:42:15;;;;;;;8.70;6.75;;;;;;;1.54;91.55;102321.19;5123028;27;20074;-68
2023/01/23 03:45:18;;;;;;;10.13;7.97;;;;;;;1.54;91.20;102316.03;5135443;27;20046;-68
2023/01/23 03:48:21;;;;;;;11.40;7.28;;;;;;;1.60;91.15;102316.09;5123276;27;20518;-68
2023/01/23 03:51:25;;;;;;;;;;;;;;;1.62;91.08;102328.16;5123226;27;20050;-68
2023/01/23 03:54:29;;;;;;;8.02;6.47;;;;;;;1.61;90.88;102325.56;5111140;27;19918;-68
2023/01/23 03:57:32;;;;;;;8.30;6.70;;;;;;;1.58;91.09;102321.22;5122716;27;20045;-68
2023/01/23 04:01:08;;;;;;;8.25;6.65;;;;;;;1.59;91.24;102327.25;5135669;27;20507;-68
2023/01/23 04:04:15;;;;;;;8.70;6.78;;;;;;;1.57;91.34;102329.81;5122574;27;20049;-68
2023/01/23 04:07:18;;;;;;;7.97;6.53;;;;;;;1.57;91.13;102327.25;5135562;27;20115;-68
2023/01/23 04:10:21;;;;;;;9.00;6.97;;;;;;;1.58;91.59;102320.38;5122688;27;20404;-68
2023/01/23 04:13:30;;;;;;;9.00;6.80;;;;;;;1.59;91.30;102320.38;5122299;27;20096;-68
2023/01/23 04:16:34;;;;;;;9.18;7.15;;;;;;;1.58;91.24;102320.38;5121712;27;20067;-68
2023/01/23 04:19:38;;;;;;;8.02;6.72;;;;;;;1.55;91.40;102323.75;5121285;27;20085;-68
2023/01/23 04:22:41;;;;;;;9.13;7.15;;;;;;;1.58;91.33;102325.53;5122058;27;20046;-68
2023/01/23 04:25:47;;;;;;;8.88;6.75;;;;;;;1.56;91.53;102324.63;5122494;27;20046;-69
2023/01/23 04:28:51;;;;;;;9.35;7.47;;;;;;;1.54;91.33;102332.34;5134543;27;20053;-69
2023/01/23 04:31:55;;;;;;;8.80;7.25;;;;;;;1.51;91.77;102332.31;5133777;27;20092;-69
2023/01/23 04:34:58;;;;;;;11.50;7.60;;;;;;;1.52;91.71;102328.88;5121958;27;20111;-69
2023/01/23 04:38:03;;;;;;;9.98;7.47;;;;;;;1.55;91.54;102331.50;5122264;27;20042;-69
2023/01/23 04:41:20;;;;;;;8.05;6.70;;;;;;;1.54;91.81;102327.19;5134603;27;20054;-66
2023/01/23 04:44:26;;;;;;;9.30;7.13;;;;;;;1.52;91.77;102323.72;5134458;27;20169;-68
2023/01/23 04:47:53;;;;;;;8.88;7.40;;;;;;;1.50;91.79;102328.00;5120533;27;20523;-68
2023/01/23 04:50:56;;;;;;;10.02;8.10;;;;;;;1.52;91.61;102328.88;5134435;27;20088;-69
2023/01/23 04:53:59;;;;;;;10.05;8.02;;;;;;;1.53;92.06;102330.63;5134458;27;20042;-69
2023/01/23 04:57:03;;;;;;;11.60;8.57;;;;;;;1.55;91.78;102328.06;5121665;27;20042;-68
2023/01/23 05:00:08;;;;;;;12.75;8.50;;;;;;;1.57;91.69;102321.22;5121390;27;20084;-69
2023/01/23 05:03:14;;;;;;;9.32;7.15;;;;;;;1.54;91.69;102313.44;5120828;27;20038;-69
2023/01/23 05:06:20;;;;;;;11.50;7.63;;;;;;;1.57;91.60;102316.94;5121634;27;20126;-69
2023/01/23 05:09:23;;;;;;;11.18;8.98;;;;;;;1.58;91.62;102317.78;5121477;27;20045;-66
2023/01/23 05:12:29;;;;;;;9.77;8.27;;;;;;;1.55;91.61;102321.19;5121658;27;20126;-66
2023/01/23 05:15:33;;;;;;;10.18;8.88;;;;;;;1.57;91.73;102311.78;5120094;27;20046;-67
2023/01/23 05:18:36;;;;;;;9.52;8.35;;;;;;;1.62;91.56;102320.41;5119356;27;20404;-68
2023/01/23 05:21:40;;;;;;;8.98;7.80;;;;;;;1.57;91.50;102316.94;5119066;27;20183;-67
2023/01/23 05:24:47;;;;;;;14.27;10.15;;;;;;;1.58;91.48;102318.66;5119405;27;20515;-66
2023/01/23 05:27:51;;;;;;;13.95;11.15;;;;;;;1.56;91.46;102315.22;5107563;27;20065;-66
2023/01/23 05:30:55;;;;;;;15.30;13.45;;;;;;;1.58;91.70;102313.50;5120477;27;20041;-66
2023/01/23 05:34:07;;;;;;;16.55;13.57;;;;;;;1.56;91.59;102316.88;5120900;27;20046;-66
2023/01/23 05:37:13;;;;;;;14.48;12.07;;;;;;;1.56;91.86;102315.22;5120386;28;20051;-66
2023/01/23 05:40:20;;;;;;;13.15;10.07;;;;;;;1.44;91.28;102327.91;5120772;28;20062;-67
2023/01/23 05:44:14;;;;;;;9.23;7.78;;;;;;;1.47;91.39;102319.34;5131712;28;20163;-65
2023/01/23 05:47:26;;;;;;;11.32;10.10;;;;;;;1.54;91.71;102344.38;5119592;28;20049;-66
2023/01/23 05:50:31;;;;;;;13.52;11.98;;;;;;;1.54;91.38;102345.25;5119664;28;20041;-66
2023/01/23 05:53:35;;;;;;;10.68;9.18;;;;;;;1.52;91.50;102354.66;5120931;28;20164;-66
2023/01/23 05:56:38;;;;;;;9.90;7.57;;;;;;;1.54;91.41;102352.13;5120920;28;20154;-66
2023/01/23 06:00:28;;;;;;;10.13;8.73;;;;;;;1.53;91.64;102351.25;5125132;28;20102;-66
2023/01/23 06:04:03;;;;;;;10.70;8.52;;;;;;;1.54;91.68;102358.13;5133737;28;20038;-66
2023/01/23 06:07:26;;;;;;;10.10;7.80;;;;;;;1.55;91.40;102357.28;5120768;28;20123;-66
2023/01/23 06:10:39;;;;;;;9.63;8.40;;;;;;;1.56;91.71;102366.78;5120815;28;20042;-66
2023/01/23 06:13:52;;;;;;;9.90;7.78;;;;;;;1.55;91.66;102370.16;5132972;28;20182;-66
2023/01/23 06:16:56;;;;;;;10.50;8.30;;;;;;;1.56;91.71;102371.94;5135594;27;20526;-66
2023/01/23 06:19:59;;;;;;;10.23;8.30;;;;;;;1.55;91.60;102375.31;5136578;27;20139;-66
2023/01/23 06:23:03;;;;;;;10.80;7.75;;;;;;;1.54;91.92;102383.06;5123502;27;20046;-66
2023/01/23 06:26:11;;;;;;;11.23;8.25;;;;;;;1.50;91.93;102383.84;5124638;27;20050;-66
2023/01/23 06:29:14;;;;;;;10.35;8.13;;;;;;;1.50;91.49;102384.72;5124716;27;20046;-66
2023/01/23 06:32:17;;;;;;;10.30;8.32;;;;;;;1.54;91.65;102394.22;5124398;27;20115;-66
2023/01/23 06:35:21;;;;;;;;;;;;;;;1.54;91.70;102399.38;5124803;27;20083;-66
2023/01/23 06:38:26;;;;;;;9.57;7.97;;;;;;;1.57;91.68;102398.56;5124341;27;20291;-65
2023/01/23 06:41:31;;;;;;;10.88;8.10;;;;;;;1.56;91.82;102392.56;5124205;27;20107;-66
2023/01/23 06:44:39;;;;;;;10.88;8.90;;;;;;;1.61;91.58;102397.75;5124328;27;20049;-65
2023/01/23 06:47:43;;;;;;;12.93;9.88;;;;;;;1.58;91.63;102398.56;5122197;27;20050;-65
2023/01/23 06:50:46;;;;;;;12.48;9.18;;;;;;;1.56;91.92;102405.44;5122139;27;20099;-65
2023/01/23 06:53:56;;;;;;;10.52;9.02;;;;;;;1.61;91.66;102401.19;5122156;27;20107;-65
2023/01/23 06:56:59;;;;;;;10.52;8.45;;;;;;;1.67;91.44;102409.88;5123886;27;20042;-65
2023/01/23 07:00:03;;;;;;;11.48;8.93;;;;;;;1.65;91.25;102402.13;5123219;27;20050;-66
2023/01/23 07:03:10;;;;;;;10.38;8.65;;;;;;;1.63;91.35;102411.56;5123828;27;20088;-66
2023/01/23 07:06:15;;;;;;;10.65;8.00;;;;;;;1.67;90.99;102409.88;5123944;27;20054;-67
2023/01/23 07:09:19;;;;;;;11.80;8.63;;;;;;;1.63;91.28;102416.72;5112123;27;20077;-65
2023/01/23 07:12:30;;;;;;;12.63;9.45;;;;;;;1.56;91.34;102413.19;5123460;27;20054;-66
2023/01/23 07:15:33;;;;;;;10.70;8.50;;;;;;;1.53;91.87;102417.38;5123489;27;20050;-66
2023/01/23 07:18:37;;;;;;;10.50;8.35;;;;;;;1.59;91.70;102430.38;5136201;27;20042;-65
2023/01/23 07:21:43;;;;;;;10.18;8.00;;;;;;;1.54;91.78;102430.31;5123186;27;20046;-66
2023/01/23 07:24:47;;;;;;;11.15;7.72;;;;;;;1.60;91.51;102440.72;5136023;27;20066;-66
2023/01/23 07:27:50;;;;;;;10.70;7.70;;;;;;;1.60;91.52;102440.72;5122560;27;20038;-66
2023/01/23 07:30:54;;;;;;;9.65;7.68;;;;;;;1.58;91.51;102446.72;5122976;27;20615;-66
2023/01/23 07:33:57;;;;;;;11.48;8.80;;;;;;;1.54;91.67;102444.94;5122012;27;20046;-69
2023/01/23 07:37:00;;;;;;;14.60;9.00;;;;;;;1.59;91.97;102438.97;5135057;27;20458;-73
2023/01/23 07:40:04;;;;;;;11.98;10.25;;;;;;;1.62;91.74;102446.75;5134648;27;20058;-73
2023/01/23 07:43:07;;;;;;;13.18;9.35;;;;;;;1.66;91.69;102445.13;5134445;27;20046;-73
2023/01/23 07:46:11;;;;;;;10.30;8.45;;;;;;;1.66;91.27;102449.38;5121862;27;20081;-73
2023/01/23 07:49:14;;;;;;;9.77;7.78;;;;;;;1.64;91.55;102441.66;5135973;27;20050;-73
2023/01/23 07:52:18;;;;;;;13.63;8.07;;;;;;;1.63;91.59;102447.66;5135666;27;20042;-76
2023/01/23 07:55:22;;;;;;;12.55;8.10;;;;;;;1.64;91.38;102451.97;5135531;27;20503;-75
2023/01/23 07:58:25;;;;;;;9.38;7.63;;;;;;;1.71;91.43;102458.06;5122961;27;20175;-77
2023/01/23 08:01:29;;;;;;;9.35;8.00;;;;;;;1.69;91.59;102460.66;5135494;27;20107;-80
2023/01/23 08:04:32;;;;;;;11.30;7.93;;;;;;;1.71;91.64;102458.06;5135658;27;20400;-73
2023/01/23 08:07:36;;;;;;;12.75;10.80;;;;;;;1.73;91.46;102462.41;5135598;27;20112;-73
2023/01/23 08:10:39;;;;;;;14.15;11.40;;;;;;;1.81;91.28;102455.66;5135113;27;20473;-69
2023/01/23 08:13:42;;;;;;;13.38;9.95;;;;;;;1.87;90.95;102454.88;5135075;27;20110;-68
2023/01/23 08:16:50;;;;;;;12.80;9.93;;;;;;;1.90;91.10;102465.25;5135079;27;20058;-68
2023/01/23 08:19:54;;;;;;;12.75;11.35;;;;;;;1.94;90.51;102472.16;5135051;27;20100;-81
2023/01/23 08:22:58;;;;;;;13.95;10.73;;;;;;;2.00;90.72;102476.56;5122235;27;20412;-68
2023/01/23 08:26:04;;;;;;;13.05;10.43;;;;;;;2.01;90.18;102479.19;5134870;27;20432;-77
2023/01/23 08:29:07;;;;;;;10.98;9.60;;;;;;;2.03;90.60;102482.63;5135041;27;20086;-72
2023/01/23 08:32:11;;;;;;;;;;;;;;;2.01;90.31;102484.34;5135355;27;20123;-69
2023/01/23 08:35:15;;;;;;;10.63;8.77;;;;;;;2.01;90.50;102484.34;5121995;27;19971;-68
2023/01/23 08:38:19;;;;;;;12.80;8.70;;;;;;;2.02;90.73;102483.47;5134028;27;20054;-67
2023/01/23 08:41:22;;;;;;;12.27;8.07;;;;;;;2.04;90.72;102492.13;5134907;27;20095;-67
2023/01/23 08:44:26;;;;;;;10.68;7.43;;;;;;;2.08;90.73;102501.63;5134545;27;20050;-67
2023/01/23 08:47:35;;;;;;;8.73;7.32;;;;;;;2.09;90.48;102503.38;5134430;27;20100;-67
2023/01/23 08:50:38;;;;;;;8.80;7.38;;;;;;;2.01;89.95;102504.97;5134406;27;20082;-69
2023/01/23 08:53:42;;;;;;;9.15;7.32;;;;;;;2.07;90.17;102510.25;5122017;27;20042;-68
2023/01/23 08:56:45;;;;;;;7.38;6.35;;;;;;;2.08;90.09;102514.53;5134361;27;20118;-66
2023/01/23 08:59:49;;;;;;;10.02;7.55;;;;;;;2.07;89.75;102512.81;5134187;27;20046;-68
2023/01/23 09:02:53;;;;;;;9.55;6.95;;;;;;;2.09;90.12;102512.81;5134209;27;20050;-68
2023/01/23 09:05:59;;;;;;;;;;;;;;;2.09;90.52;102518.84;5134592;27;20053;-69
2023/01/23 09:09:02;;;;;;;8.73;5.97;;;;;;;2.17;90.05;102507.75;5134198;27;20326;-69
2023/01/23 09:12:07;;;;;;;7.97;7.18;;;;;;;1.98;91.35;102514.38;5134232;27;20556;-69
2023/01/23 09:15:28;;;;;;;8.63;6.70;;;;;;;2.16;90.13;102508.63;5133995;27;20416;-70
2023/01/23 09:19:20;;;;;;;9.38;6.35;;;;;;;2.21;89.09;102525.03;5133783;27;20150;-70
2023/01/23 09:22:48;;;;;;;8.70;6.65;;;;;;;2.29;88.58;102515.69;5133806;27;20041;-68
2023/01/23 09:25:52;;;;;;;9.05;6.57;;;;;;;2.33;88.00;102527.81;5133956;27;20069;-68
2023/01/23 09:28:55;;;;;;;8.77;7.55;;;;;;;2.36;87.89;102527.81;5133884;27;20123;-70
2023/01/23 09:31:58;;;;;;;7.40;6.40;;;;;;;2.39;87.36;102527.84;5121317;27;20046;-70
2023/01/23 09:35:02;;;;;;;9.23;7.20;;;;;;;2.39;86.80;102532.16;5121283;27;20057;-69
2023/01/23 09:38:06;;;;;;;8.15;7.03;;;;;;;2.42;86.41;102533.06;5134096;27;20050;-69
2023/01/23 09:41:16;;;;;;;7.07;5.75;;;;;;;2.47;86.00;102535.72;5133745;28;20111;-69
2023/01/23 09:44:39;;;;;;;10.13;8.57;;;;;;;2.50;86.33;102531.47;5133608;28;20066;-69
2023/01/23 09:47:52;;;;;;;7.80;6.70;;;;;;;2.51;86.28;102525.44;5133576;28;20082;-69
2023/01/23 09:51:02;;;;;;;8.00;6.93;;;;;;;2.49;86.67;102527.16;5136707;27;20104;-67
2023/01/23 09:54:32;;;;;;;7.82;6.78;;;;;;;2.54;86.76;102522.03;5137935;27;20046;-67
2023/01/23 09:57:44;;;;;;;10.05;6.85;;;;;;;2.45;85.55;102522.78;5138004;27;20057;-69
2023/01/23 10:00:53;;;;;;;8.43;6.30;;;;;;;2.55;85.46;102522.06;5138022;27;20046;-69
2023/01/23 10:03:59;;;;;;;8.45;6.75;;;;;;;2.62;84.31;102519.56;5137841;27;20162;-68
2023/01/23 10:07:16;;;;;;;8.20;5.93;;;;;;;2.72;83.30;102534.34;5137839;27;20050;-68
2023/01/23 10:10:32;;;;;;;7.50;6.18;;;;;;;2.62;82.81;102529.91;5124877;27;20146;-67
2023/01/23 10:13:50;;;;;;;8.48;5.88;;;;;;;2.72;81.90;102526.59;5137668;27;20419;-68
2023/01/23 10:16:59;;;;;;;8.27;6.00;;;;;;;2.81;81.72;102521.53;5137443;27;20457;-69
2023/01/23 10:20:29;;;;;;;6.75;5.22;;;;;;;2.82;81.57;102528.41;5137680;27;20534;-70
2023/01/23 10:24:02;;;;;;;6.55;4.78;;;;;;;2.72;81.39;102516.25;5137253;27;20042;-69
2023/01/23 10:27:19;;;;;;;6.63;4.97;;;;;;;2.69;79.55;102514.50;5137404;27;20088;-69
2023/01/23 10:30:40;;;;;;;10.63;6.05;;;;;;;2.70;79.36;102523.09;5124490;27;20169;-69
2023/01/23 10:38:00;;;;;;;6.75;5.07;;;;;;;2.82;78.88;102520.69;5137060;27;20088;-69
2023/01/23 10:41:13;;;;;;;6.63;5.25;;;;;;;2.85;78.39;102512.09;5136978;27;20522;-69
2023/01/23 10:44:18;;;;;;;10.23;6.78;;;;;;;2.84;78.57;102515.50;5137114;27;20522;-69
2023/01/23 10:47:28;;;;;;;7.00;5.63;;;;;;;2.91;79.23;102513.03;5136390;27;20092;-67
2023/01/23 10:50:38;;;;;;;6.18;5.45;;;;;;;2.90;78.78;102516.44;5123175;27;20092;-68
2023/01/23 10:53:41;;;;;;;8.52;6.38;;;;;;;2.92;78.29;102522.50;5136750;27;20558;-68
2023/01/23 10:56:57;;;;;;;;;;;;;;;2.96;78.58;102513.06;5135668;27;20421;-68
2023/01/23 11:00:07;;;;;;;7.18;5.80;;;;;;;3.02;77.69;102516.59;5136881;27;20284;-68
2023/01/23 11:03:19;;;;;;;8.45;6.47;;;;;;;3.07;78.08;102514.06;5135735;27;20046;-69
2023/01/23 11:06:24;;;;;;;9.02;6.28;;;;;;;2.94;76.84;102510.47;5136584;27;20121;-69
2023/01/23 11:09:29;;;;;;;9.20;7.53;;;;;;;3.00;76.74;102507.09;5123873;27;20041;-68
2023/01/23 11:12:44;;;;;;;8.30;7.22;;;;;;;3.08;77.02;102504.59;5136267;27;20073;-69
2023/01/23 11:15:47;;;;;;;7.60;6.35;;;;;;;3.13;76.86;102497.75;5136444;27;20077;-69
2023/01/23 11:18:54;;;;;;;8.10;7.03;;;;;;;3.13;77.01;102492.59;5136585;27;20041;-69
2023/01/23 11:22:02;;;;;;;9.40;7.88;;;;;;;3.31;75.91;102487.56;5136482;27;20050;-69
2023/01/23 11:25:26;;;;;;;9.07;7.72;;;;;;;3.33;75.85;102487.59;5136436;27;20073;-69
2023/01/23 11:28:52;;;;;;;9.02;7.75;;;;;;;3.36;75.31;102487.63;5136145;27;20060;-69
2023/01/23 11:32:05;;;;;;;8.57;6.28;;;;;;;3.31;75.30;102487.56;5136249;27;20447;-69
2023/01/23 11:35:38;;;;;;;6.97;5.88;;;;;;;3.22;75.61;102487.47;5135993;27;20179;-68
2023/01/23 11:38:56;;;;;;;8.88;6.70;;;;;;;3.30;75.02;102490.16;5136032;27;20054;-69
2023/01/23 11:42:01;;;;;;;7.70;6.78;;;;;;;3.41;74.98;102491.97;5135756;27;20050;-68
2023/01/23 11:45:13;;;;;;;7.28;6.30;;;;;;;3.44;75.32;102493.72;5135605;27;20104;-70
2023/01/23 11:48:34;;;;;;;7.90;6.53;;;;;;;3.48;74.90;102493.78;5135859;27;20062;-69
2023/01/23 11:52:05;;;;;;;8.32;7.00;;;;;;;3.61;74.33;102475.78;5135547;27;20046;-68
2023/01/23 11:55:38;;;;;;;7.65;6.50;;;;;;;3.60;74.19;102484.38;5135531;27;20513;-68
2023/01/23 11:59:02;;;;;;;8.18;6.80;;;;;;;3.46;74.57;102487.72;5135272;27;20046;-69
2023/01/23 12:02:16;;;;;;;8.85;6.82;;;;;;;3.48;74.47;102483.44;5133436;27;20128;-68
2023/01/23 12:05:19;;;;;;;13.55;11.20;;;;;;;3.29;75.51;102483.22;5133731;27;20073;-69
2023/01/23 12:14:55;;;;;;;9.13;7.75;;;;;;;3.61;74.25;102475.78;5085693;28;20099;-68
2023/01/23 12:18:24;;;;;;;9.38;7.45;;;;;;;3.60;72.92;102474.88;5086427;28;20043;-67
2023/01/23 12:21:46;;;;;;;10.27;7.45;;;;;;;3.50;73.77;102473.94;5092867;28;20082;-68
2023/01/23 12:25:33;;;;;;;9.02;7.60;;;;;;;3.73;74.63;102471.56;5092912;28;20100;-68
2023/01/23 12:29:05;;;;;;;9.57;7.95;;;;;;;3.79;74.22;102467.25;5070838;28;20047;-68
2023/01/23 12:32:40;;;;;;;10.35;8.00;;;;;;;3.76;73.67;102454.31;5092745;28;20051;-68
2023/01/23 12:36:26;;;;;;;8.45;7.47;;;;;;;3.83;73.40;102449.19;5092853;28;20433;-68
2023/01/23 12:39:52;;;;;;;10.20;8.07;;;;;;;3.82;73.00;102444.00;5092527;28;20165;-66
2023/01/23 12:43:17;;;;;;;9.57;7.95;;;;;;;3.79;73.18;102449.16;5092434;28;20079;-66
2023/01/23 12:46:52;;;;;;;8.70;7.03;;;;;;;3.64;74.16;102445.63;5090473;28;20051;-67
2023/01/23 12:50:28;;;;;;;9.73;7.47;;;;;;;3.61;74.14;102442.16;5078858;28;20078;-67
2023/01/23 12:53:36;;;;;;;9.93;7.68;;;;;;;3.71;74.01;102436.19;5091775;28;20090;-68
2023/01/23 12:56:43;;;;;;;9.85;7.45;;;;;;;3.50;74.98;102432.56;5092153;28;20543;-70
2023/01/23 13:00:00;;;;;;;9.73;7.65;;;;;;;3.67;74.91;102434.41;5092528;28;20104;-69
2023/01/23 13:03:16;;;;;;;10.77;8.20;;;;;;;3.31;74.87;102428.09;5079327;28;20178;-68
2023/01/23 13:06:31;;;;;;;12.25;10.30;;;;;;;3.23;75.30;102427.19;5091759;28;20093;-68
2023/01/23 13:10:18;;;;;;;10.45;8.05;;;;;;;3.47;75.25;102437.72;5085954;28;20047;-68
2023/01/23 13:13:22;;;;;;;9.75;8.00;;;;;;;3.33;74.87;102444.50;5056993;28;20055;-69
2023/01/23 13:16:29;;;;;;;8.65;7.38;;;;;;;3.47;74.78;102442.03;5038352;28;20506;-70
2023/01/23 13:23:24;;;;;;;9.38;7.57;;;;;;;3.47;75.50;102439.44;5051247;28;20102;-69
2023/01/23 13:26:29;;;;;;;10.07;8.13;;;;;;;3.42;75.29;102449.75;5051331;28;20413;-70
2023/01/23 13:30:10;;;;;;;9.45;7.28;;;;;;;3.56;75.10;102447.28;5039303;28;20090;-69
2023/01/23 13:33:34;;;;;;;9.02;6.85;;;;;;;3.55;74.40;102439.50;5049164;28;20040;-69
2023/01/23 13:36:42;;;;;;;13.38;8.73;;;;;;;3.37;74.22;102448.84;5050136;28;20052;-69
2023/01/23 13:40:11;;;;;;;9.20;7.75;;;;;;;3.54;74.38;102453.28;5048455;28;20052;-70
2023/01/23 13:59:13;;;;;;;8.15;6.72;;;;;;;3.48;75.57;102449.81;5109196;28;20047;-72
2023/01/23 14:06:46;;;;;;;10.52;7.60;;;;;;;3.45;76.30;102460.13;5129063;28;20415;-72
2023/01/23 14:09:59;;;;;;;11.93;7.53;;;;;;;3.41;76.18;102463.53;5128493;28;20053;-71
2023/01/23 14:13:21;;;;;;;9.48;7.93;;;;;;;3.53;76.27;102461.91;5129197;28;20085;-82
2023/01/23 14:16:52;;;;;;;11.35;7.47;;;;;;;3.33;75.02;102452.28;5110342;28;20055;-71
2023/01/23 14:20:01;;;;;;;9.60;7.28;;;;;;;3.30;74.68;102460.00;5108880;28;20042;-71
2023/01/23 14:23:24;;;;;;;10.68;7.50;;;;;;;3.25;75.48;102459.06;5131764;27;20106;-71
2023/01/23 14:26:32;;;;;;;8.57;6.97;;;;;;;3.41;76.58;102454.91;5108455;28;20058;-71
2023/01/23 14:29:40;;;;;;;10.25;7.80;;;;;;;3.45;76.61;102454.97;5121984;28;20088;-71
2023/01/23 14:32:46;;;;;;;9.60;6.82;;;;;;;3.52;75.39;102457.59;5124473;28;20038;-71
2023/01/23 14:35:55;;;;;;;13.20;7.53;;;;;;;3.39;76.35;102460.06;5125531;28;20078;-71
2023/01/23 14:39:04;;;;;;;11.43;7.35;;;;;;;3.40;76.25;102459.22;5124827;28;20096;-71
2023/01/23 14:42:22;;;;;;;10.25;6.60;;;;;;;3.26;76.21;102451.34;5126587;28;20053;-71
2023/01/23 14:45:32;;;;;;;15.60;7.70;;;;;;;3.42;75.94;102460.09;4768437;27;10000442;-71
2023/01/23 14:48:41;;;;;;;11.32;7.20;;;;;;;3.44;77.55;102460.97;5124720;28;20062;-71
2023/01/23 14:52:01;;;;;;;10.65;7.28;;;;;;;3.29;77.25;102458.28;5124667;28;20046;-70
2023/01/23 14:55:25;;;;;;;10.07;7.18;;;;;;;3.45;76.76;102465.31;5121068;28;20633;-70
2023/01/23 14:58:30;;;;;;;11.02;7.38;;;;;;;3.43;76.40;102464.41;5112312;28;20049;-71
2023/01/23 15:01:35;;;;;;;11.75;7.43;;;;;;;3.44;76.14;102463.53;5111998;28;20515;-71
2023/01/23 15:04:39;;;;;;;9.15;7.15;;;;;;;3.44;76.58;102465.28;5109909;28;20594;-71
2023/01/23 15:08:01;;;;;;;15.73;7.85;;;;;;;3.42;76.47;102461.84;5111638;28;20112;-71
2023/01/23 15:11:10;;;;;;;8.48;7.13;;;;;;;3.37;76.92;102460.91;5103793;28;20054;-70
2023/01/23 15:14:30;;;;;;;12.32;7.70;;;;;;;3.24;76.88;102459.94;5094568;28;20050;-71
2023/01/23 15:17:34;;;;;;;11.43;7.82;;;;;;;3.30;76.86;102462.59;5097229;28;20057;-70
2023/01/23 15:20:40;;;;;;;;;;;;;;;3.26;77.44;102468.59;5094778;28;20515;-71
2023/01/23 15:23:59;;;;;;;8.65;6.75;;;;;;;3.31;77.75;102471.19;5094112;28;19961;-71
2023/01/23 15:27:31;;;;;;;9.35;7.22;;;;;;;3.30;77.36;102467.75;5105400;28;20124;-72
2023/01/23 15:30:34;;;;;;;9.05;6.90;;;;;;;3.28;76.45;102460.81;5108830;28;20074;-71
2023/01/23 15:33:39;;;;;;;;;;;;;;;3.36;77.03;102465.22;5105134;28;20100;-71
2023/01/23 15:36:53;;;;;;;11.52;7.45;;;;;;;3.33;77.66;102454.00;5110404;28;19953;-72
2023/01/23 15:40:03;;;;;;;8.38;7.00;;;;;;;3.22;78.44;102457.34;5109689;28;20461;-71